createdAt,value
2023-01-17T00:03:06.956Z,95423.78
2023-01-17T00:08:43.655Z,95421.41
2023-01-17T06:11:08.715Z,95582.19
2023-01-17T06:16:10.416Z,95593.78
2023-01-17T06:21:12.098Z,95595.50
2023-01-17T06:26:13.949Z,95608.00
2023-01-17T06:31:15.625Z,95593.84
2023-01-17T06:36:17.533Z,95588.81
2023-01-17T06:41:19.161Z,95620.63
2023-01-17T06:46:20.939Z,95621.16
2023-01-17T06:51:23.700Z,95620.56
2023-01-17T06:56:25.332Z,95605.97
2023-01-17T07:01:27.057Z,95642.94
2023-01-17T07:06:29.053Z,95651.28
2023-01-17T07:11:31.555Z,95655.50
2023-01-17T07:16:34.217Z,95642.69
2023-01-17T07:21:36.032Z,95610.94
2023-01-17T07:26:38.169Z,95644.94
2023-01-17T07:31:40.527Z,95612.88
2023-01-17T07:36:42.233Z,95639.13
2023-01-17T07:41:43.912Z,95630.56
2023-01-17T07:46:45.546Z,95609.56
2023-01-17T07:51:47.683Z,95613.50
2023-01-17T07:56:49.419Z,95596.94
2023-01-17T08:01:51.168Z,95593.31
2023-01-17T08:06:55.017Z,95619.72
2023-01-17T08:11:56.711Z,95617.50
2023-01-17T08:17:11.309Z,95605.56
2023-01-17T08:22:12.951Z,95603.47
2023-01-17T08:27:15.295Z,95586.56
2023-01-17T08:32:17.058Z,95628.34
2023-01-17T08:37:18.912Z,95642.91
2023-01-17T08:42:22.622Z,95615.81
2023-01-17T08:47:24.401Z,95666.91
2023-01-17T08:52:29.633Z,95659.44
2023-01-17T08:57:32.249Z,95663.91
2023-01-17T09:02:34.234Z,95644.44
2023-01-17T09:07:36.100Z,95638.63
2023-01-17T09:12:39.127Z,95638.63
2023-01-17T09:17:40.830Z,95648.47
2023-01-17T09:22:42.486Z,95640.28
2023-01-17T09:27:47.445Z,95610.81
2023-01-17T09:32:53.580Z,95618.84
2023-01-17T09:37:57.188Z,95626.88
2023-01-17T09:43:07.294Z,95611.00
2023-01-17T09:48:18.011Z,95597.31
2023-01-17T09:53:23.371Z,95573.47
2023-01-17T09:58:53.023Z,95575.22
2023-01-17T10:04:26.443Z,95570.72
2023-01-17T10:09:40.257Z,95561.22
2023-01-17T10:15:10.380Z,95555.25
2023-01-17T10:20:15.269Z,95540.69
2023-01-17T10:25:38.095Z,95528.94
2023-01-17T10:30:54.781Z,95466.47
2023-01-17T10:35:59.811Z,95511.66
2023-01-17T10:41:22.993Z,95498.25
2023-01-17T10:46:35.640Z,95479.22
2023-01-17T10:52:00.575Z,95476.09
2023-01-17T10:57:02.487Z,95459.44
2023-01-17T11:02:15.169Z,95447.56
2023-01-17T11:07:20.630Z,95436.56
2023-01-17T11:12:45.000Z,95462.28
2023-01-17T11:18:51.996Z,95457.88
2023-01-17T11:23:58.898Z,95452.66
2023-01-17T11:29:32.243Z,95418.97
2023-01-17T11:34:33.937Z,95389.47
2023-01-17T11:39:36.683Z,95361.13
2023-01-17T11:44:38.357Z,95332.78
2023-01-17T11:49:41.776Z,95328.00
2023-01-17T11:54:46.727Z,95309.97
2023-01-17T11:59:49.164Z,95300.03
2023-01-17T12:05:00.668Z,95317.94
2023-01-17T12:10:16.328Z,95332.47
2023-01-17T12:15:56.231Z,95341.91
2023-01-17T12:21:20.781Z,95341.78
2023-01-17T12:26:23.954Z,95351.00
2023-01-17T12:31:38.879Z,95362.97
2023-01-17T12:36:56.553Z,95360.97
2023-01-17T12:42:03.356Z,95339.78
2023-01-17T12:47:06.407Z,95337.13
2023-01-17T12:52:16.900Z,95328.81
2023-01-17T12:57:26.555Z,95321.22
2023-01-17T13:02:49.815Z,95288.78
2023-01-17T13:08:20.013Z,95277.00
2023-01-17T13:13:30.303Z,95262.22
2023-01-17T13:18:33.336Z,95252.63
2023-01-17T13:24:03.871Z,95244.03
2023-01-17T13:29:28.906Z,95251.28
2023-01-17T13:34:33.469Z,95246.97
2023-01-17T13:40:19.367Z,95250.28
2023-01-17T13:45:24.137Z,95246.97
2023-01-17T13:50:56.033Z,95234.38
2023-01-17T13:56:14.867Z,95230.06
2023-01-17T14:01:45.637Z,95228.09
2023-01-17T14:06:56.696Z,95231.09
2023-01-17T14:12:07.228Z,95231.09
2023-01-17T14:17:25.770Z,95230.06
2023-01-17T14:22:30.137Z,95191.34
2023-01-17T14:27:39.281Z,95175.63
2023-01-17T14:32:41.123Z,95161.56
2023-01-17T14:37:48.301Z,95130.63
2023-01-17T14:42:59.804Z,95141.22
2023-01-17T14:48:06.044Z,95150.16
2023-01-17T14:53:13.419Z,95138.88
2023-01-17T14:58:27.074Z,95120.50
2023-01-17T15:03:33.220Z,95092.03
2023-01-17T15:08:36.830Z,95087.59
2023-01-17T15:13:44.991Z,95081.81
2023-01-17T15:18:47.724Z,95092.06
2023-01-17T15:23:56.380Z,95080.78
2023-01-17T15:29:12.510Z,95076.16
2023-01-17T15:34:23.519Z,95069.88
2023-01-17T15:39:30.487Z,95047.72
2023-01-17T15:44:49.694Z,95042.06
2023-01-17T15:49:53.100Z,95029.66
2023-01-17T15:55:22.448Z,95011.63
2023-01-17T16:00:39.145Z,95004.69
2023-01-17T16:05:43.637Z,94999.69
2023-01-17T16:10:45.530Z,95001.34
2023-01-17T16:15:47.633Z,95013.84
2023-01-17T16:20:59.843Z,95013.19
2023-01-17T16:26:01.674Z,95013.19
2023-01-17T16:31:03.596Z,94993.38
2023-01-17T16:36:05.996Z,94973.56
2023-01-17T16:41:08.060Z,94937.88
2023-01-17T16:46:11.591Z,94933.94
2023-01-17T16:51:13.356Z,94936.88
2023-01-17T16:56:17.264Z,94948.44
2023-01-17T17:01:21.312Z,94949.41
2023-01-17T17:06:23.165Z,94951.91
2023-01-17T17:11:24.976Z,94964.59
2023-01-17T17:16:33.003Z,94978.31
2023-01-17T17:21:37.670Z,94968.22
2023-01-17T17:26:41.269Z,94961.63
2023-01-17T17:31:43.488Z,94953.03
2023-01-17T17:36:45.629Z,94977.47
2023-01-17T17:41:47.922Z,94979.47
2023-01-17T17:46:51.556Z,94969.28
2023-01-17T17:51:53.373Z,94980.84
2023-01-17T17:56:56.150Z,94948.81
2023-01-17T18:01:59.798Z,94946.34
2023-01-17T18:07:01.508Z,94953.28
2023-01-17T18:12:03.428Z,94984.34
2023-01-17T18:17:05.206Z,94973.44
2023-01-17T18:22:06.908Z,94976.59
2023-01-17T18:27:10.524Z,94972.31
2023-01-17T18:32:13.332Z,94959.72
2023-01-17T18:37:15.151Z,94931.13
2023-01-17T18:42:16.907Z,94977.72
2023-01-17T18:47:18.587Z,94967.19
2023-01-17T18:52:20.932Z,94944.84
2023-01-17T18:57:24.167Z,94923.69
2023-01-17T19:02:25.849Z,94952.13
2023-01-17T19:07:29.744Z,94937.56
2023-01-17T19:12:31.330Z,94925.31
2023-01-17T19:17:32.972Z,94886.03
2023-01-17T19:22:34.680Z,94894.09
2023-01-17T19:27:36.485Z,94923.69
2023-01-17T19:32:38.196Z,94923.03
2023-01-17T19:37:44.228Z,94874.13
2023-01-17T19:42:46.667Z,94898.88
2023-01-17T19:47:48.357Z,94888.44
2023-01-17T19:52:51.445Z,94896.56
2023-01-17T19:57:54.887Z,94921.38
2023-01-17T20:02:56.837Z,94918.38
2023-01-17T20:07:58.949Z,94921.84
2023-01-17T20:13:01.067Z,94902.50
2023-01-17T20:18:02.732Z,94905.97
2023-01-17T20:23:06.420Z,94925.00
2023-01-17T20:28:08.096Z,94935.91
2023-01-17T20:33:14.943Z,94916.91
2023-01-17T20:38:16.708Z,94927.81
2023-01-17T20:43:18.570Z,94950.97
2023-01-17T20:48:21.883Z,94968.00
2023-01-17T20:53:23.710Z,94958.41
2023-01-17T20:58:25.535Z,94958.09
